sensor_id;sensor_type;location;lat;lon;timestamp;P1;durP1;ratioP1;P2;durP2;ratioP2
44228;SDS011;29904;51.058;5.378;2023-02-02T00:01:12;18.58;;;3.35;;
44228;SDS011;29904;51.058;5.378;2023-02-02T00:03:40;15.20;;;3.67;;
44228;SDS011;29904;51.058;5.378;2023-02-02T00:06:06;12.03;;;3.60;;
44228;SDS011;29904;51.058;5.378;2023-02-02T00:08:31;14.33;;;3.53;;
44228;SDS011;29904;51.058;5.378;2023-02-02T00:10:59;15.30;;;3.05;;
44228;SDS011;29904;51.058;5.378;2023-02-02T00:13:25;15.68;;;2.92;;
44228;SDS011;29904;51.058;5.378;2023-02-02T00:15:51;9.73;;;2.63;;
44228;SDS011;29904;51.058;5.378;2023-02-02T00:18:17;14.30;;;3.42;;
44228;SDS011;29904;51.058;5.378;2023-02-02T00:20:43;13.70;;;3.00;;
44228;SDS011;29904;51.058;5.378;2023-02-02T00:23:11;13.70;;;2.88;;
44228;SDS011;29904;51.058;5.378;2023-02-02T00:25:39;12.63;;;2.78;;
44228;SDS011;29904;51.058;5.378;2023-02-02T00:28:05;14.13;;;2.97;;
44228;SDS011;29904;51.058;5.378;2023-02-02T00:30:31;13.35;;;2.97;;
44228;SDS011;29904;51.058;5.378;2023-02-02T00:32:57;16.60;;;2.85;;
44228;SDS011;29904;51.058;5.378;2023-02-02T00:35:22;12.55;;;3.00;;
44228;SDS011;29904;51.058;5.378;2023-02-02T00:37:48;11.60;;;2.43;;
44228;SDS011;29904;51.058;5.378;2023-02-02T00:40:14;10.37;;;2.57;;
44228;SDS011;29904;51.058;5.378;2023-02-02T00:42:40;11.77;;;2.47;;
44228;SDS011;29904;51.058;5.378;2023-02-02T00:45:08;13.93;;;2.40;;
44228;SDS011;29904;51.058;5.378;2023-02-02T00:47:41;13.37;;;2.70;;
44228;SDS011;29904;51.058;5.378;2023-02-02T00:50:09;13.45;;;2.55;;
44228;SDS011;29904;51.058;5.378;2023-02-02T00:52:38;12.23;;;2.75;;
44228;SDS011;29904;51.058;5.378;2023-02-02T00:55:04;13.82;;;2.88;;
44228;SDS011;29904;51.058;5.378;2023-02-02T00:57:30;11.43;;;2.60;;
44228;SDS011;29904;51.058;5.378;2023-02-02T00:59:56;10.90;;;2.53;;
44228;SDS011;29904;51.058;5.378;2023-02-02T01:02:21;12.87;;;2.30;;
44228;SDS011;29904;51.058;5.378;2023-02-02T01:04:47;13.32;;;2.35;;
44228;SDS011;29904;51.058;5.378;2023-02-02T01:07:14;12.43;;;2.10;;
44228;SDS011;29904;51.058;5.378;2023-02-02T01:09:40;12.05;;;2.53;;
44228;SDS011;29904;51.058;5.378;2023-02-02T01:12:06;12.00;;;2.60;;
44228;SDS011;29904;51.058;5.378;2023-02-02T01:14:32;12.15;;;2.38;;
44228;SDS011;29904;51.058;5.378;2023-02-02T01:16:57;12.98;;;2.78;;
44228;SDS011;29904;51.058;5.378;2023-02-02T01:19:23;15.00;;;2.63;;
44228;SDS011;29904;51.058;5.378;2023-02-02T01:21:49;11.23;;;2.28;;
44228;SDS011;29904;51.058;5.378;2023-02-02T01:24:15;10.38;;;2.25;;
44228;SDS011;29904;51.058;5.378;2023-02-02T01:26:40;16.17;;;2.78;;
44228;SDS011;29904;51.058;5.378;2023-02-02T01:29:08;15.27;;;2.75;;
44228;SDS011;29904;51.058;5.378;2023-02-02T01:31:36;11.50;;;2.45;;
44228;SDS011;29904;51.058;5.378;2023-02-02T01:34:02;17.08;;;2.78;;
44228;SDS011;29904;51.058;5.378;2023-02-02T01:36:28;13.88;;;2.97;;
44228;SDS011;29904;51.058;5.378;2023-02-02T01:38:53;11.57;;;2.35;;
44228;SDS011;29904;51.058;5.378;2023-02-02T01:41:20;10.82;;;2.55;;
44228;SDS011;29904;51.058;5.378;2023-02-02T01:43:49;13.30;;;2.45;;
44228;SDS011;29904;51.058;5.378;2023-02-02T01:46:20;10.10;;;2.30;;
44228;SDS011;29904;51.058;5.378;2023-02-02T01:51:51;12.18;;;2.35;;
44228;SDS011;29904;51.058;5.378;2023-02-02T01:54:21;12.77;;;2.50;;
44228;SDS011;29904;51.058;5.378;2023-02-02T01:56:55;15.68;;;2.90;;
44228;SDS011;29904;51.058;5.378;2023-02-02T01:59:24;13.45;;;2.33;;
44228;SDS011;29904;51.058;5.378;2023-02-02T02:01:52;11.63;;;2.42;;
44228;SDS011;29904;51.058;5.378;2023-02-02T02:04:19;13.68;;;2.80;;
44228;SDS011;29904;51.058;5.378;2023-02-02T02:06:46;11.57;;;2.47;;
44228;SDS011;29904;51.058;5.378;2023-02-02T02:09:17;14.00;;;2.55;;
44228;SDS011;29904;51.058;5.378;2023-02-02T02:11:43;10.63;;;2.17;;
44228;SDS011;29904;51.058;5.378;2023-02-02T02:14:09;13.57;;;2.40;;
44228;SDS011;29904;51.058;5.378;2023-02-02T02:19:58;12.60;;;2.60;;
44228;SDS011;29904;51.058;5.378;2023-02-02T02:32:09;10.52;;;2.25;;
44228;SDS011;29904;51.058;5.378;2023-02-02T02:35:26;13.02;;;2.35;;
44228;SDS011;29904;51.058;5.378;2023-02-02T02:38:20;14.45;;;2.60;;
44228;SDS011;29904;51.058;5.378;2023-02-02T02:41:01;13.87;;;2.37;;
44228;SDS011;29904;51.058;5.378;2023-02-02T02:43:36;13.55;;;2.20;;
44228;SDS011;29904;51.058;5.378;2023-02-02T02:46:06;12.82;;;2.00;;
44228;SDS011;29904;51.058;5.378;2023-02-02T02:48:33;13.10;;;2.40;;
44228;SDS011;29904;51.058;5.378;2023-02-02T02:51:06;13.07;;;2.40;;
44228;SDS011;29904;51.058;5.378;2023-02-02T02:53:33;8.95;;;2.30;;
44228;SDS011;29904;51.058;5.378;2023-02-02T02:58:54;12.23;;;2.20;;
44228;SDS011;29904;51.058;5.378;2023-02-02T03:01:35;13.67;;;2.47;;
44228;SDS011;29904;51.058;5.378;2023-02-02T03:04:17;10.88;;;2.40;;
44228;SDS011;29904;51.058;5.378;2023-02-02T03:09:35;12.88;;;2.20;;
44228;SDS011;29904;51.058;5.378;2023-02-02T03:12:04;14.98;;;2.50;;
44228;SDS011;29904;51.058;5.378;2023-02-02T03:14:33;11.77;;;2.40;;
44228;SDS011;29904;51.058;5.378;2023-02-02T03:17:00;11.52;;;2.30;;
44228;SDS011;29904;51.058;5.378;2023-02-02T03:19:26;10.77;;;2.42;;
44228;SDS011;29904;51.058;5.378;2023-02-02T03:21:52;15.07;;;2.60;;
44228;SDS011;29904;51.058;5.378;2023-02-02T03:24:17;10.80;;;2.20;;
44228;SDS011;29904;51.058;5.378;2023-02-02T03:26:43;12.80;;;2.30;;
44228;SDS011;29904;51.058;5.378;2023-02-02T03:29:09;12.43;;;2.47;;
44228;SDS011;29904;51.058;5.378;2023-02-02T03:31:35;10.43;;;2.38;;
44228;SDS011;29904;51.058;5.378;2023-02-02T03:34:01;14.10;;;2.20;;
44228;SDS011;29904;51.058;5.378;2023-02-02T03:36:29;13.95;;;2.33;;
44228;SDS011;29904;51.058;5.378;2023-02-02T03:38:55;12.37;;;2.40;;
44228;SDS011;29904;51.058;5.378;2023-02-02T03:41:20;15.10;;;2.80;;
44228;SDS011;29904;51.058;5.378;2023-02-02T03:43:48;11.40;;;2.42;;
44228;SDS011;29904;51.058;5.378;2023-02-02T03:46:13;11.50;;;2.80;;
44228;SDS011;29904;51.058;5.378;2023-02-02T03:48:39;12.88;;;2.50;;
44228;SDS011;29904;51.058;5.378;2023-02-02T03:51:06;17.42;;;2.67;;
44228;SDS011;29904;51.058;5.378;2023-02-02T03:53:35;11.87;;;2.50;;
44228;SDS011;29904;51.058;5.378;2023-02-02T03:56:02;16.85;;;2.95;;
44228;SDS011;29904;51.058;5.378;2023-02-02T03:58:27;12.38;;;2.53;;
44228;SDS011;29904;51.058;5.378;2023-02-02T04:00:57;13.57;;;2.40;;
44228;SDS011;29904;51.058;5.378;2023-02-02T04:03:26;13.23;;;2.30;;
44228;SDS011;29904;51.058;5.378;2023-02-02T04:05:52;13.25;;;2.40;;
44228;SDS011;29904;51.058;5.378;2023-02-02T04:08:18;13.40;;;2.70;;
44228;SDS011;29904;51.058;5.378;2023-02-02T04:10:44;13.98;;;2.60;;
44228;SDS011;29904;51.058;5.378;2023-02-02T04:13:09;12.02;;;2.33;;
44228;SDS011;29904;51.058;5.378;2023-02-02T04:15:37;14.52;;;2.65;;
44228;SDS011;29904;51.058;5.378;2023-02-02T04:18:03;12.98;;;2.40;;
44228;SDS011;29904;51.058;5.378;2023-02-02T04:20:28;13.85;;;2.55;;
44228;SDS011;29904;51.058;5.378;2023-02-02T04:22:56;12.75;;;2.50;;
44228;SDS011;29904;51.058;5.378;2023-02-02T04:25:21;15.80;;;2.87;;
44228;SDS011;29904;51.058;5.378;2023-02-02T04:27:47;14.23;;;2.73;;
44228;SDS011;29904;51.058;5.378;2023-02-02T04:30:13;13.50;;;2.77;;
44228;SDS011;29904;51.058;5.378;2023-02-02T04:32:39;9.73;;;2.47;;
44228;SDS011;29904;51.058;5.378;2023-02-02T04:35:04;11.95;;;2.50;;
44228;SDS011;29904;51.058;5.378;2023-02-02T04:37:31;11.15;;;2.13;;
44228;SDS011;29904;51.058;5.378;2023-02-02T04:39:56;12.10;;;2.50;;
44228;SDS011;29904;51.058;5.378;2023-02-02T04:42:22;14.70;;;2.72;;
44228;SDS011;29904;51.058;5.378;2023-02-02T04:44:49;17.88;;;3.05;;
44228;SDS011;29904;51.058;5.378;2023-02-02T04:47:15;11.35;;;2.30;;
44228;SDS011;29904;51.058;5.378;2023-02-02T04:49:41;11.65;;;2.50;;
44228;SDS011;29904;51.058;5.378;2023-02-02T04:52:09;13.55;;;2.80;;
44228;SDS011;29904;51.058;5.378;2023-02-02T04:54:35;11.43;;;2.70;;
44228;SDS011;29904;51.058;5.378;2023-02-02T04:57:01;14.18;;;2.65;;
44228;SDS011;29904;51.058;5.378;2023-02-02T04:59:27;11.77;;;2.22;;
44228;SDS011;29904;51.058;5.378;2023-02-02T05:01:55;12.98;;;2.30;;
44228;SDS011;29904;51.058;5.378;2023-02-02T05:04:24;13.15;;;2.38;;
44228;SDS011;29904;51.058;5.378;2023-02-02T05:06:50;12.77;;;2.70;;
44228;SDS011;29904;51.058;5.378;2023-02-02T05:09:18;12.50;;;2.70;;
44228;SDS011;29904;51.058;5.378;2023-02-02T05:11:44;11.45;;;2.33;;
44228;SDS011;29904;51.058;5.378;2023-02-02T05:14:10;13.17;;;2.20;;
44228;SDS011;29904;51.058;5.378;2023-02-02T05:16:38;12.90;;;2.50;;
44228;SDS011;29904;51.058;5.378;2023-02-02T05:19:04;15.05;;;2.78;;
44228;SDS011;29904;51.058;5.378;2023-02-02T05:21:29;10.70;;;2.20;;
44228;SDS011;29904;51.058;5.378;2023-02-02T05:23:57;11.07;;;1.88;;
44228;SDS011;29904;51.058;5.378;2023-02-02T05:26:24;13.45;;;2.60;;
44228;SDS011;29904;51.058;5.378;2023-02-02T05:28:51;9.60;;;2.30;;
44228;SDS011;29904;51.058;5.378;2023-02-02T05:31:17;13.75;;;2.42;;
44228;SDS011;29904;51.058;5.378;2023-02-02T05:33:43;12.30;;;2.92;;
44228;SDS011;29904;51.058;5.378;2023-02-02T05:36:09;13.25;;;2.47;;
44228;SDS011;29904;51.058;5.378;2023-02-02T05:38:35;13.35;;;2.63;;
44228;SDS011;29904;51.058;5.378;2023-02-02T05:41:01;10.43;;;2.60;;
44228;SDS011;29904;51.058;5.378;2023-02-02T05:43:28;14.68;;;2.78;;
44228;SDS011;29904;51.058;5.378;2023-02-02T05:45:56;13.23;;;2.35;;
44228;SDS011;29904;51.058;5.378;2023-02-02T05:48:22;13.15;;;2.95;;
44228;SDS011;29904;51.058;5.378;2023-02-02T05:50:56;11.95;;;2.50;;
44228;SDS011;29904;51.058;5.378;2023-02-02T05:53:23;9.18;;;2.38;;
44228;SDS011;29904;51.058;5.378;2023-02-02T05:55:49;12.48;;;2.53;;
44228;SDS011;29904;51.058;5.378;2023-02-02T05:58:14;13.75;;;2.90;;
44228;SDS011;29904;51.058;5.378;2023-02-02T06:00:40;11.90;;;2.50;;
44228;SDS011;29904;51.058;5.378;2023-02-02T06:03:06;10.80;;;2.40;;
44228;SDS011;29904;51.058;5.378;2023-02-02T06:05:32;12.65;;;2.50;;
44228;SDS011;29904;51.058;5.378;2023-02-02T06:07:59;10.02;;;2.40;;
44228;SDS011;29904;51.058;5.378;2023-02-02T06:10:25;9.75;;;2.00;;
44228;SDS011;29904;51.058;5.378;2023-02-02T06:12:51;8.70;;;2.38;;
44228;SDS011;29904;51.058;5.378;2023-02-02T06:15:16;9.40;;;2.28;;
44228;SDS011;29904;51.058;5.378;2023-02-02T06:17:42;9.77;;;2.47;;
44228;SDS011;29904;51.058;5.378;2023-02-02T06:20:08;11.45;;;2.30;;
44228;SDS011;29904;51.058;5.378;2023-02-02T06:22:34;13.50;;;2.50;;
44228;SDS011;29904;51.058;5.378;2023-02-02T06:25:01;13.15;;;2.50;;
44228;SDS011;29904;51.058;5.378;2023-02-02T06:27:29;11.52;;;2.33;;
44228;SDS011;29904;51.058;5.378;2023-02-02T06:29:55;11.23;;;2.30;;
44228;SDS011;29904;51.058;5.378;2023-02-02T06:32:21;10.50;;;2.33;;
44228;SDS011;29904;51.058;5.378;2023-02-02T06:34:47;11.73;;;2.37;;
44228;SDS011;29904;51.058;5.378;2023-02-02T06:37:12;12.63;;;2.70;;
44228;SDS011;29904;51.058;5.378;2023-02-02T06:39:38;11.10;;;2.50;;
44228;SDS011;29904;51.058;5.378;2023-02-02T06:42:04;11.57;;;2.80;;
44228;SDS011;29904;51.058;5.378;2023-02-02T06:44:30;12.10;;;3.00;;
44228;SDS011;29904;51.058;5.378;2023-02-02T06:46:55;12.95;;;2.72;;
44228;SDS011;29904;51.058;5.378;2023-02-02T06:49:21;13.87;;;2.50;;
44228;SDS011;29904;51.058;5.378;2023-02-02T06:51:47;10.50;;;2.40;;
44228;SDS011;29904;51.058;5.378;2023-02-02T06:54:13;13.07;;;3.20;;
44228;SDS011;29904;51.058;5.378;2023-02-02T06:56:39;13.57;;;3.00;;
44228;SDS011;29904;51.058;5.378;2023-02-02T06:59:04;11.10;;;2.73;;
44228;SDS011;29904;51.058;5.378;2023-02-02T07:01:30;14.23;;;2.73;;
44228;SDS011;29904;51.058;5.378;2023-02-02T07:03:56;13.25;;;2.58;;
44228;SDS011;29904;51.058;5.378;2023-02-02T07:06:23;11.43;;;2.45;;
44228;SDS011;29904;51.058;5.378;2023-02-02T07:08:51;13.05;;;2.30;;
44228;SDS011;29904;51.058;5.378;2023-02-02T07:11:17;10.75;;;2.60;;
44228;SDS011;29904;51.058;5.378;2023-02-02T07:13:43;14.93;;;2.60;;
44228;SDS011;29904;51.058;5.378;2023-02-02T07:16:10;10.20;;;2.50;;
44228;SDS011;29904;51.058;5.378;2023-02-02T07:18:39;13.82;;;3.03;;
44228;SDS011;29904;51.058;5.378;2023-02-02T07:21:07;11.35;;;2.45;;
44228;SDS011;29904;51.058;5.378;2023-02-02T07:23:33;9.35;;;2.47;;
44228;SDS011;29904;51.058;5.378;2023-02-02T07:26:00;15.32;;;2.22;;
44228;SDS011;29904;51.058;5.378;2023-02-02T07:28:30;10.27;;;2.40;;
44228;SDS011;29904;51.058;5.378;2023-02-02T07:30:55;9.73;;;2.28;;
44228;SDS011;29904;51.058;5.378;2023-02-02T07:33:21;9.57;;;2.42;;
44228;SDS011;29904;51.058;5.378;2023-02-02T07:35:47;12.88;;;2.42;;
44228;SDS011;29904;51.058;5.378;2023-02-02T07:38:13;11.20;;;2.65;;
44228;SDS011;29904;51.058;5.378;2023-02-02T07:40:41;10.95;;;2.35;;
44228;SDS011;29904;51.058;5.378;2023-02-02T07:43:07;11.30;;;2.40;;
44228;SDS011;29904;51.058;5.378;2023-02-02T07:45:33;10.55;;;2.00;;
44228;SDS011;29904;51.058;5.378;2023-02-02T07:48:01;14.40;;;2.10;;
44228;SDS011;29904;51.058;5.378;2023-02-02T07:50:27;10.00;;;2.00;;
44228;SDS011;29904;51.058;5.378;2023-02-02T07:52:54;10.27;;;2.45;;
44228;SDS011;29904;51.058;5.378;2023-02-02T07:55:23;9.97;;;2.13;;
44228;SDS011;29904;51.058;5.378;2023-02-02T07:57:50;10.57;;;2.43;;
44228;SDS011;29904;51.058;5.378;2023-02-02T08:00:16;11.20;;;2.08;;
44228;SDS011;29904;51.058;5.378;2023-02-02T08:02:43;10.15;;;2.55;;
44228;SDS011;29904;51.058;5.378;2023-02-02T08:05:08;9.90;;;2.20;;
44228;SDS011;29904;51.058;5.378;2023-02-02T08:07:34;9.13;;;2.25;;
44228;SDS011;29904;51.058;5.378;2023-02-02T08:10:00;10.73;;;2.33;;
44228;SDS011;29904;51.058;5.378;2023-02-02T08:12:26;8.17;;;2.43;;
44228;SDS011;29904;51.058;5.378;2023-02-02T08:14:52;9.18;;;2.05;;
44228;SDS011;29904;51.058;5.378;2023-02-02T08:17:18;9.70;;;2.22;;
44228;SDS011;29904;51.058;5.378;2023-02-02T08:19:44;12.70;;;2.88;;
44228;SDS011;29904;51.058;5.378;2023-02-02T08:22:09;11.02;;;2.08;;
44228;SDS011;29904;51.058;5.378;2023-02-02T08:24:35;11.38;;;2.38;;
44228;SDS011;29904;51.058;5.378;2023-02-02T08:27:05;11.20;;;2.30;;
44228;SDS011;29904;51.058;5.378;2023-02-02T08:29:32;9.38;;;2.15;;
44228;SDS011;29904;51.058;5.378;2023-02-02T08:31:58;9.00;;;2.50;;
44228;SDS011;29904;51.058;5.378;2023-02-02T08:34:24;8.60;;;2.20;;
44228;SDS011;29904;51.058;5.378;2023-02-02T08:36:50;10.33;;;2.40;;
44228;SDS011;29904;51.058;5.378;2023-02-02T08:39:16;12.33;;;2.53;;
44228;SDS011;29904;51.058;5.378;2023-02-02T08:41:41;11.27;;;2.70;;
44228;SDS011;29904;51.058;5.378;2023-02-02T08:44:09;10.43;;;2.22;;
44228;SDS011;29904;51.058;5.378;2023-02-02T08:46:37;11.30;;;2.30;;
44228;SDS011;29904;51.058;5.378;2023-02-02T08:49:05;8.35;;;2.20;;
44228;SDS011;29904;51.058;5.378;2023-02-02T08:51:34;10.50;;;2.22;;
44228;SDS011;29904;51.058;5.378;2023-02-02T08:54:02;13.10;;;2.88;;
44228;SDS011;29904;51.058;5.378;2023-02-02T08:56:28;12.45;;;2.08;;
44228;SDS011;29904;51.058;5.378;2023-02-02T08:58:54;10.45;;;2.13;;
44228;SDS011;29904;51.058;5.378;2023-02-02T09:01:23;12.77;;;2.25;;
44228;SDS011;29904;51.058;5.378;2023-02-02T09:03:54;10.87;;;2.23;;
44228;SDS011;29904;51.058;5.378;2023-02-02T09:06:21;11.65;;;2.25;;
44228;SDS011;29904;51.058;5.378;2023-02-02T09:08:57;12.60;;;2.60;;
44228;SDS011;29904;51.058;5.378;2023-02-02T09:11:23;10.27;;;2.00;;
44228;SDS011;29904;51.058;5.378;2023-02-02T09:13:52;12.27;;;2.20;;
44228;SDS011;29904;51.058;5.378;2023-02-02T09:16:19;9.30;;;2.22;;
44228;SDS011;29904;51.058;5.378;2023-02-02T09:18:45;10.82;;;2.33;;
44228;SDS011;29904;51.058;5.378;2023-02-02T09:21:12;7.97;;;1.90;;
44228;SDS011;29904;51.058;5.378;2023-02-02T09:23:40;10.10;;;2.00;;
44228;SDS011;29904;51.058;5.378;2023-02-02T09:28:37;11.48;;;2.78;;
44228;SDS011;29904;51.058;5.378;2023-02-02T09:31:07;8.10;;;2.00;;
44228;SDS011;29904;51.058;5.378;2023-02-02T09:33:34;7.65;;;2.00;;
44228;SDS011;29904;51.058;5.378;2023-02-02T09:36:06;10.73;;;2.00;;
44228;SDS011;29904;51.058;5.378;2023-02-02T09:38:41;9.90;;;2.08;;
44228;SDS011;29904;51.058;5.378;2023-02-02T09:52:38;11.43;;;2.40;;
44228;SDS011;29904;51.058;5.378;2023-02-02T09:55:09;9.95;;;2.15;;
44228;SDS011;29904;51.058;5.378;2023-02-02T09:57:44;10.32;;;2.38;;
44228;SDS011;29904;51.058;5.378;2023-02-02T10:00:18;10.40;;;2.70;;
44228;SDS011;29904;51.058;5.378;2023-02-02T10:02:58;10.63;;;2.72;;
44228;SDS011;29904;51.058;5.378;2023-02-02T10:05:30;10.43;;;2.33;;
44228;SDS011;29904;51.058;5.378;2023-02-02T10:08:21;11.18;;;2.78;;
44228;SDS011;29904;51.058;5.378;2023-02-02T10:10:55;11.05;;;3.42;;
44228;SDS011;29904;51.058;5.378;2023-02-02T10:13:24;10.77;;;3.30;;
44228;SDS011;29904;51.058;5.378;2023-02-02T10:16:08;11.27;;;3.15;;
44228;SDS011;29904;51.058;5.378;2023-02-02T10:24:18;10.68;;;2.90;;
44228;SDS011;29904;51.058;5.378;2023-02-02T10:26:49;7.70;;;2.20;;
44228;SDS011;29904;51.058;5.378;2023-02-02T10:35:20;10.98;;;3.03;;
44228;SDS011;29904;51.058;5.378;2023-02-02T10:43:09;10.57;;;3.00;;
44228;SDS011;29904;51.058;5.378;2023-02-02T10:48:46;10.57;;;2.83;;
44228;SDS011;29904;51.058;5.378;2023-02-02T10:51:18;8.98;;;2.67;;
44228;SDS011;29904;51.058;5.378;2023-02-02T10:53:51;8.68;;;2.80;;
44228;SDS011;29904;51.058;5.378;2023-02-02T10:56:25;8.65;;;2.90;;
44228;SDS011;29904;51.058;5.378;2023-02-02T10:59:10;10.20;;;2.85;;
44228;SDS011;29904;51.058;5.378;2023-02-02T11:01:40;9.85;;;2.80;;
44228;SDS011;29904;51.058;5.378;2023-02-02T11:04:07;10.50;;;2.63;;
44228;SDS011;29904;51.058;5.378;2023-02-02T11:06:53;8.57;;;2.55;;
44228;SDS011;29904;51.058;5.378;2023-02-02T11:11:53;10.57;;;2.78;;
44228;SDS011;29904;51.058;5.378;2023-02-02T11:17:01;10.52;;;3.00;;
44228;SDS011;29904;51.058;5.378;2023-02-02T11:19:30;7.57;;;2.70;;
44228;SDS011;29904;51.058;5.378;2023-02-02T11:21:59;10.43;;;2.83;;
44228;SDS011;29904;51.058;5.378;2023-02-02T11:24:46;9.85;;;2.50;;
44228;SDS011;29904;51.058;5.378;2023-02-02T11:27:17;8.38;;;2.50;;
44228;SDS011;29904;51.058;5.378;2023-02-02T11:29:52;8.75;;;2.45;;
44228;SDS011;29904;51.058;5.378;2023-02-02T11:37:37;7.07;;;1.83;;
44228;SDS011;29904;51.058;5.378;2023-02-02T11:42:52;6.75;;;1.77;;
44228;SDS011;29904;51.058;5.378;2023-02-02T11:45:34;6.43;;;2.00;;
44228;SDS011;29904;51.058;5.378;2023-02-02T11:48:04;8.98;;;2.33;;
44228;SDS011;29904;51.058;5.378;2023-02-02T11:50:35;6.18;;;1.70;;
44228;SDS011;29904;51.058;5.378;2023-02-02T11:53:01;6.68;;;1.50;;
44228;SDS011;29904;51.058;5.378;2023-02-02T11:55:28;6.00;;;1.50;;
44228;SDS011;29904;51.058;5.378;2023-02-02T12:00:48;8.02;;;1.90;;
44228;SDS011;29904;51.058;5.378;2023-02-02T12:03:21;9.40;;;1.80;;
44228;SDS011;29904;51.058;5.378;2023-02-02T12:05:57;7.70;;;1.90;;
44228;SDS011;29904;51.058;5.378;2023-02-02T12:08:26;7.20;;;1.83;;
44228;SDS011;29904;51.058;5.378;2023-02-02T12:10:58;8.05;;;1.80;;
44228;SDS011;29904;51.058;5.378;2023-02-02T12:13:43;7.60;;;1.80;;
44228;SDS011;29904;51.058;5.378;2023-02-02T12:21:42;8.02;;;2.20;;
44228;SDS011;29904;51.058;5.378;2023-02-02T12:24:30;7.65;;;2.10;;
44228;SDS011;29904;51.058;5.378;2023-02-02T12:27:22;8.60;;;2.63;;
44228;SDS011;29904;51.058;5.378;2023-02-02T12:44:25;7.10;;;2.58;;
44228;SDS011;29904;51.058;5.378;2023-02-02T12:49:55;7.07;;;2.60;;
44228;SDS011;29904;51.058;5.378;2023-02-02T12:52:52;6.20;;;2.20;;
44228;SDS011;29904;51.058;5.378;2023-02-02T12:55:28;6.18;;;2.00;;
44228;SDS011;29904;51.058;5.378;2023-02-02T13:12:33;6.13;;;1.88;;
44228;SDS011;29904;51.058;5.378;2023-02-02T13:15:07;5.20;;;1.77;;
44228;SDS011;29904;51.058;5.378;2023-02-02T13:17:41;7.30;;;2.03;;
44228;SDS011;29904;51.058;5.378;2023-02-02T13:22:48;6.25;;;2.30;;
44228;SDS011;29904;51.058;5.378;2023-02-02T13:25:23;8.60;;;2.95;;
44228;SDS011;29904;51.058;5.378;2023-02-02T13:27:57;9.32;;;2.85;;
44228;SDS011;29904;51.058;5.378;2023-02-02T13:30:26;8.10;;;2.35;;
44228;SDS011;29904;51.058;5.378;2023-02-02T13:33:01;7.18;;;2.60;;
44228;SDS011;29904;51.058;5.378;2023-02-02T13:35:40;5.53;;;2.00;;
44228;SDS011;29904;51.058;5.378;2023-02-02T13:40:49;7.43;;;2.10;;
44228;SDS011;29904;51.058;5.378;2023-02-02T13:43:23;5.97;;;1.95;;
44228;SDS011;29904;51.058;5.378;2023-02-02T13:48:29;6.70;;;1.85;;
44228;SDS011;29904;51.058;5.378;2023-02-02T13:59:19;7.28;;;2.47;;
44228;SDS011;29904;51.058;5.378;2023-02-02T14:02:07;8.17;;;1.90;;
44228;SDS011;29904;51.058;5.378;2023-02-02T14:04:54;5.97;;;1.85;;
44228;SDS011;29904;51.058;5.378;2023-02-02T14:07:26;5.95;;;2.00;;
44228;SDS011;29904;51.058;5.378;2023-02-02T14:09:56;7.65;;;2.15;;
44228;SDS011;29904;51.058;5.378;2023-02-02T14:12:28;5.00;;;1.90;;
44228;SDS011;29904;51.058;5.378;2023-02-02T14:14:57;5.85;;;1.90;;
44228;SDS011;29904;51.058;5.378;2023-02-02T14:19:58;7.78;;;2.17;;
44228;SDS011;29904;51.058;5.378;2023-02-02T14:25:45;8.07;;;2.50;;
44228;SDS011;29904;51.058;5.378;2023-02-02T14:28:10;5.05;;;1.80;;
44228;SDS011;29904;51.058;5.378;2023-02-02T14:31:22;7.30;;;2.10;;
44228;SDS011;29904;51.058;5.378;2023-02-02T14:34:14;6.30;;;1.83;;
44228;SDS011;29904;51.058;5.378;2023-02-02T14:39:40;5.95;;;2.00;;
44228;SDS011;29904;51.058;5.378;2023-02-02T14:42:28;4.93;;;1.63;;
44228;SDS011;29904;51.058;5.378;2023-02-02T14:48:22;4.53;;;1.70;;
44228;SDS011;29904;51.058;5.378;2023-02-02T14:50:56;5.63;;;2.00;;
44228;SDS011;29904;51.058;5.378;2023-02-02T14:53:28;5.97;;;2.03;;
44228;SDS011;29904;51.058;5.378;2023-02-02T14:58:37;7.33;;;2.30;;
44228;SDS011;29904;51.058;5.378;2023-02-02T15:14:31;8.10;;;2.00;;
44228;SDS011;29904;51.058;5.378;2023-02-02T15:17:05;6.75;;;2.03;;
44228;SDS011;29904;51.058;5.378;2023-02-02T15:28:09;5.43;;;2.25;;
44228;SDS011;29904;51.058;5.378;2023-02-02T15:30:55;6.97;;;2.60;;
44228;SDS011;29904;51.058;5.378;2023-02-02T15:33:34;6.25;;;2.10;;
44228;SDS011;29904;51.058;5.378;2023-02-02T15:36:10;5.50;;;2.20;;
44228;SDS011;29904;51.058;5.378;2023-02-02T15:38:40;6.72;;;2.45;;
44228;SDS011;29904;51.058;5.378;2023-02-02T15:41:13;6.88;;;2.60;;
44228;SDS011;29904;51.058;5.378;2023-02-02T15:43:40;4.43;;;2.30;;
44228;SDS011;29904;51.058;5.378;2023-02-02T15:46:10;5.20;;;2.05;;
44228;SDS011;29904;51.058;5.378;2023-02-02T15:48:39;4.95;;;2.60;;
44228;SDS011;29904;51.058;5.378;2023-02-02T15:51:15;5.03;;;2.50;;
44228;SDS011;29904;51.058;5.378;2023-02-02T15:56:25;7.03;;;2.40;;
44228;SDS011;29904;51.058;5.378;2023-02-02T15:58:54;5.57;;;2.80;;
44228;SDS011;29904;51.058;5.378;2023-02-02T16:01:23;6.03;;;2.92;;
44228;SDS011;29904;51.058;5.378;2023-02-02T16:06:37;7.35;;;3.13;;
44228;SDS011;29904;51.058;5.378;2023-02-02T16:09:04;4.45;;;2.53;;
44228;SDS011;29904;51.058;5.378;2023-02-02T16:11:31;6.90;;;2.72;;
44228;SDS011;29904;51.058;5.378;2023-02-02T16:14:04;6.85;;;2.95;;
44228;SDS011;29904;51.058;5.378;2023-02-02T16:16:37;7.97;;;2.63;;
44228;SDS011;29904;51.058;5.378;2023-02-02T16:21:29;5.18;;;2.40;;
44228;SDS011;29904;51.058;5.378;2023-02-02T16:23:57;6.90;;;2.65;;
44228;SDS011;29904;51.058;5.378;2023-02-02T16:26:24;6.10;;;2.70;;
44228;SDS011;29904;51.058;5.378;2023-02-02T16:28:53;5.35;;;2.80;;
44228;SDS011;29904;51.058;5.378;2023-02-02T16:31:19;6.15;;;2.78;;
44228;SDS011;29904;51.058;5.378;2023-02-02T16:33:45;5.32;;;2.85;;
44228;SDS011;29904;51.058;5.378;2023-02-02T16:36:18;5.88;;;2.92;;
44228;SDS011;29904;51.058;5.378;2023-02-02T16:38:46;8.37;;;3.27;;
44228;SDS011;29904;51.058;5.378;2023-02-02T16:41:33;7.07;;;3.22;;
44228;SDS011;29904;51.058;5.378;2023-02-02T16:47:06;9.40;;;4.00;;
44228;SDS011;29904;51.058;5.378;2023-02-02T16:52:33;8.25;;;3.10;;
44228;SDS011;29904;51.058;5.378;2023-02-02T16:55:16;6.20;;;3.50;;
44228;SDS011;29904;51.058;5.378;2023-02-02T16:57:44;8.00;;;3.90;;
44228;SDS011;29904;51.058;5.378;2023-02-02T17:00:22;7.05;;;3.38;;
44228;SDS011;29904;51.058;5.378;2023-02-02T17:02:52;6.80;;;2.90;;
44228;SDS011;29904;51.058;5.378;2023-02-02T17:05:27;6.20;;;3.37;;
44228;SDS011;29904;51.058;5.378;2023-02-02T17:07:56;4.57;;;2.75;;
44228;SDS011;29904;51.058;5.378;2023-02-02T17:10:35;4.80;;;2.80;;
44228;SDS011;29904;51.058;5.378;2023-02-02T17:13:20;4.83;;;2.93;;
44228;SDS011;29904;51.058;5.378;2023-02-02T17:15:54;7.50;;;3.10;;
44228;SDS011;29904;51.058;5.378;2023-02-02T17:18:20;7.45;;;3.17;;
44228;SDS011;29904;51.058;5.378;2023-02-02T17:20:46;5.45;;;2.97;;
44228;SDS011;29904;51.058;5.378;2023-02-02T17:23:18;6.38;;;3.10;;
44228;SDS011;29904;51.058;5.378;2023-02-02T17:25:44;7.45;;;3.15;;
44228;SDS011;29904;51.058;5.378;2023-02-02T17:28:16;7.05;;;3.03;;
44228;SDS011;29904;51.058;5.378;2023-02-02T17:31:09;7.43;;;3.40;;
44228;SDS011;29904;51.058;5.378;2023-02-02T17:33:37;7.72;;;3.45;;
44228;SDS011;29904;51.058;5.378;2023-02-02T17:36:03;8.00;;;3.15;;
44228;SDS011;29904;51.058;5.378;2023-02-02T17:38:30;6.20;;;3.30;;
44228;SDS011;29904;51.058;5.378;2023-02-02T17:41:00;5.78;;;3.30;;
44228;SDS011;29904;51.058;5.378;2023-02-02T17:43:27;7.00;;;3.23;;
44228;SDS011;29904;51.058;5.378;2023-02-02T17:45:54;4.10;;;2.65;;
44228;SDS011;29904;51.058;5.378;2023-02-02T17:48:19;6.10;;;3.25;;
44228;SDS011;29904;51.058;5.378;2023-02-02T17:50:47;6.00;;;3.13;;